Flight Track Log - Related Links

Times and Time Zones

All times are in EDT time to prevent confusion due to time zone crossing. See the N682RW flight status page for this flight to view local times or setup timezone preferences in your user account.

Time Position Orientation Groundspeed Altitude Reporting Facility
EDT Latitude Longitude Course Direction KTS MPH feet Rate Location/Type
Thu 02:01:12 AM 51.0500 -114.0500 255° West 190 219 5,100  Level Edmonton Center
Thu 02:02:12 AM 50.9833 -114.0333 171° South 240 276 7,400 2,500 Climbing Edmonton Center
Thu 02:03:12 AM 50.9333 -114.1333 232° Southwest 260 299 10,100 2,200 Climbing Edmonton Center
Thu 02:04:12 AM 50.9667 -114.2500 294° West 310 357 11,800 2,050 Climbing Edmonton Center
Thu 02:05:12 AM 51.0000 -114.4000 290° West 340 391 14,200 2,550 Climbing Edmonton Center
Thu 02:06:00 AM 50.9309 -115.1083 255° West  Level Estimated
Thu 02:06:12 AM 51.0167 -114.5667 279° West 350 403 16,900  Level Edmonton Center
Thu 02:07:12 AM 51.0333 -114.7000 281° West 370 426 19,500 2,400 Climbing Edmonton Center
Thu 02:08:12 AM 51.0167 -114.8833 262° West 380 437 21,700 1,850 Climbing Edmonton Center
Thu 02:09:12 AM 51.0000 -115.0333 260° West 390 449 23,200 1,700 Climbing Edmonton Center
Thu 02:10:12 AM 51.0000 -115.2333 270° West 400 460 25,100 1,850 Climbing Edmonton Center
Thu 02:11:12 AM 50.9833 -115.4167 262° West 410 472 26,900 1,660 Climbing Edmonton Center
Thu 02:11:46 AM 50.9833 -115.4667 270° West 420 483 27,700 1,596 Climbing Vancouver Center
Thu 02:12:46 AM 50.9500 -115.6167 251° West 430 495 29,400 1,550 Climbing Vancouver Center
Thu 02:13:46 AM 50.9167 -115.8167 255° West 430 495 30,800 1,300 Climbing Vancouver Center
Thu 02:14:46 AM 50.8833 -115.9833 252° West 420 483 32,000 837 Climbing Vancouver Center
Thu 02:15:12 AM 50.8333 -116.1333 242° Southwest 420 483 32,000  Level Edmonton Center
Thu 02:16:12 AM 50.8000 -116.2833 251° West 430 495 32,000  Level Edmonton Center
Thu 02:17:12 AM 50.7667 -116.4667 254° West 420 483 32,000  Level Edmonton Center
Thu 02:17:46 AM 50.7833 -116.5000 308° West 430 495 32,000  Level Vancouver Center
Thu 02:18:12 AM 50.7500 -116.6833 254° West 430 495 32,000  Level Edmonton Center
Thu 02:19:12 AM 50.7167 -116.8333 251° West 430 495 32,000  Level Edmonton Center
Thu 02:20:12 AM 50.6667 -117.0333 249° West 430 495 32,000  Level Edmonton Center
Thu 02:21:12 AM 50.6333 -117.2167 254° West 430 495 32,000  Level Edmonton Center
Thu 02:21:46 AM 50.6167 -117.2333 212° Southwest 430 495 32,000  Level Vancouver Center
Thu 02:22:12 AM 50.5833 -117.3833 251° West 430 495 32,000  Level Edmonton Center
Thu 02:22:46 AM 50.5833 -117.4333 270° West 430 495 32,000  Level Vancouver Center
Thu 02:23:46 AM 50.5500 -117.5833 251° West 430 495 32,000  Level Vancouver Center
Thu 02:24:12 AM 50.5167 -117.7333 251° West 430 495 32,000  Level Edmonton Center
Thu 02:25:12 AM 50.4667 -117.9167 247° West 430 495 32,000  Level Edmonton Center
Thu 02:26:12 AM 50.4333 -118.1000 254° West 430 495 32,000  Level Edmonton Center
Thu 02:26:46 AM 50.4333 -118.1333 270° West 430 495 32,000  Level Vancouver Center
Thu 02:27:46 AM 50.4000 -118.3167 254° West 430 495 32,000  Level Vancouver Center
Thu 02:28:46 AM 50.3667 -118.4833 253° West 430 495 32,000  Level Vancouver Center
Thu 02:29:46 AM 50.3167 -118.6500 245° Southwest 430 495 32,000  Level Vancouver Center
Thu 02:30:46 AM 50.2833 -118.8333 254° West 430 495 32,000  Level Vancouver Center
Thu 02:31:46 AM 50.2333 -119.0167 247° West 430 495 32,000  Level Vancouver Center
Thu 02:32:46 AM 50.2000 -119.1833 253° West 420 483 32,000  Level Vancouver Center
Thu 02:33:46 AM 50.1667 -119.3667 254° West 430 495 32,000  Level Vancouver Center
Thu 02:34:46 AM 50.1333 -119.5500 254° West 430 495 32,000  Level Vancouver Center
Thu 02:35:46 AM 50.0833 -119.7167 245° Southwest 430 495 32,000  Level Vancouver Center
Thu 02:36:46 AM 50.0333 -119.8667 243° Southwest 430 495 32,000  Level Vancouver Center
Thu 02:37:46 AM 50.0000 -120.0500 254° West 430 495 32,000  Level Vancouver Center
Thu 02:38:46 AM 49.9500 -120.2500 249° West 430 495 32,000  Level Vancouver Center
Thu 02:39:46 AM 49.9167 -120.4000 251° West 430 495 32,000  Level Vancouver Center
Thu 02:40:46 AM 49.8833 -120.5833 254° West 430 495 32,000  Level Vancouver Center
Thu 02:42:00 AM 49.8419 -120.7632 250° West  Level FlightAware Approximate
Thu 02:49:00 AM 49.5840 -121.7648 249° West  Level FlightAware Approximate
Thu 02:50:00 AM 49.5481 -121.9085 249° West  Level FlightAware Approximate
Thu 02:51:00 AM 49.5156 -122.0528 238° Southwest  Level FlightAware Approximate
Thu 02:52:00 AM 49.4709 -122.1892 251° West  Level FlightAware Approximate
Thu 02:53:00 AM 49.4340 -122.3315 243° Southwest  Level FlightAware Approximate
Thu 02:54:00 AM 49.3894 -122.4688 245° Southwest  Level FlightAware Approximate
Thu 02:55:00 AM 49.3477 -122.6081 246° West  Level FlightAware Approximate
Thu 02:56:00 AM 49.3101 -122.7498 253° West  Level FlightAware Approximate
Thu 02:57:00 AM 49.2697 -122.8880 249° West  Level FlightAware Approximate
Thu 02:58:00 AM 49.2333 -123.0202 270° West  Level FlightAware Approximate
Thu 02:59:00 AM 49.1915 -123.1507 249° West  Level FlightAware Approximate
Thu 03:00:00 AM 49.1833 -123.1833 249° West  Level FlightAware Approximate
Thu 03:01:00 AM 49.1939 -123.1844 249° West  Level Estimated
Thu 03:02:00 AM 49.1939 -123.1844 249° West  Level Estimated
Thu 03:03:00 AM 49.1939 -123.1844 249° West  Level Estimated
Thu 03:04:00 AM 49.1939 -123.1844 249° West  Level Estimated
Thu 03:05:00 AM 49.1939 -123.1844 249° West  Level Estimated
Thu 03:06:00 AM 49.1939 -123.1844 249° West  Level Estimated
Thu 03:07:00 AM 49.1939 -123.1844 249° West  Level Estimated
Thu 03:08:00 AM 49.1939 -123.1844 249° West  Level Estimated
Thu 03:09:00 AM 49.1939 -123.1844 249° West  Level Estimated
Thu 03:10:00 AM 49.1939 -123.1844 249° West  Level Estimated
Thu 03:11:00 AM 49.1939 -123.1844 249° West  Level Estimated
Thu 03:12:00 AM 49.1939 -123.1844 249° West  Level Estimated
Thu 03:13:00 AM 49.1939 -123.1844 249° West  Level Estimated
Thu 03:14:00 AM 49.1939 -123.1844 249° West  Level Estimated
Thu 03:15:00 AM 49.1939 -123.1844 249° West  Level Estimated
Thu 03:16:00 AM 49.1939 -123.1844 249° West  Level Estimated
Thu 03:17:00 AM 49.1939 -123.1844 249° West  Level Estimated

Login

Don't have an account? Register now (free) for customized features, flight alerts, and more!